Morning Crystal — 3FKJ9 — position and weather

sailwx.info

Track history (hours):
 
Tides and Currents Weather Stations Pressure Air Temp Water Temp Dewpoint Dewpoint Depression Visibility Wind Speed Wind Dir Waves Ship Positions

Morning Crystal

Last reported at 2018-Jun-19 14:51 UTC. Time now 2018-Jun-22 23:04 UTC.
Position N 01°59' E 104°53'.

Length 199 m; draft 7.9 m.

Type: Ship. MMSI: 371706000.

Date/timePositionNaut miles runAvg speedWind from/ knotsBaromVisibWave heightAir tempDewpointWater temp
2018-Jun-19 14:51N 01°59' E 104°53'1017.6
2018-Jun-19 14:16N 01°50' E 104°48'617.5
2018-Jun-19 13:56N 01°45' E 104°46'917.5
2018-Jun-19 13:26N 01°37' E 104°42'817.2
2018-Jun-19 12:58N 01°31' E 104°36'917.9
2018-Jun-19 12:28N 01°26' E 104°29'817.7
2018-Jun-19 11:59N 01°20' E 104°23'815.8
2018-Jun-19 11:30N 01°17' E 104°16'916.6
2018-Jun-19 10:59N 01°16' E 104°08'613.3
2018-Jun-19 10:30N 01°16' E 104°01'3 5.2
2018-Jun-19 10:01N 01°17' E 103°59'0 0.2
2018-Jun-19 09:29N 01°17' E 103°59'0 0.0
2018-Jun-19 08:59N 01°17' E 103°59'0 0.1
2018-Jun-19 08:29N 01°17' E 103°59'0 0.0
2018-Jun-19 07:59N 01°17' E 103°59'0 0.0
2018-Jun-19 07:29N 01°17' E 103°59'0 0.1
2018-Jun-19 06:59N 01°17' E 103°59'0 0.1
2018-Jun-19 06:22N 01°17' E 103°59'0 0.0
2018-Jun-19 05:58N 01°17' E 103°59'0 0.0
2018-Jun-19 05:28N 01°17' E 103°59'0 0.0
2018-Jun-19 04:56N 01°17' E 103°59'0 0.0
2018-Jun-19 04:28N 01°17' E 103°59'0 0.0
2018-Jun-19 03:59N 01°17' E 103°59'0 0.0
2018-Jun-19 03:29N 01°17' E 103°59'0 0.1
2018-Jun-19 02:59N 01°17' E 103°59'0 0.0
2018-Jun-19 02:29N 01°17' E 103°59'0 0.0
2018-Jun-19 01:58N 01°17' E 103°59'0 0.8
2018-Jun-19 01:30N 01°17' E 103°59'2 4.2
2018-Jun-19 01:00N 01°16' E 103°57'2 4.0
2018-Jun-19 00:31N 01°14' E 103°57'3 6.3
2018-Jun-19 00:00N 01°13' E 103°54'4 7.8
2018-Jun-18 23:30N 01°11' E 103°50'5 9.5
2018-Jun-18 23:00N 01°08' E 103°46'5 9.6
2018-Jun-18 22:30N 01°05' E 103°43'5 9.1
2018-Jun-18 21:59N 01°03' E 103°39'612.2
2018-Jun-18 21:30N 01°05' E 103°34'610.8
2018-Jun-18 20:59N 01°08' E 103°29'511.0
2018-Jun-18 20:29N 01°11' E 103°24'511.4
2018-Jun-18 20:00N 01°14' E 103°20'612.1
2018-Jun-18 19:30N 01°19' E 103°15'610.0
2018-Jun-18 18:53N 01°23' E 103°11'3 8.7
2018-Jun-18 18:30N 01°25' E 103°08'5 9.4
2018-Jun-18 17:55N 01°28' E 103°04'  
Track history (hours):
 
Tides and Currents Weather Stations Pressure Air Temp Water Temp Dewpoint Dewpoint Depression Visibility Wind Speed Wind Dir Waves Ship Positions

Morning Crystal

Last reported at 2018-Jun-19 14:51 UTC. Time now 2018-Jun-22 23:04 UTC.
Position N 01°59' E 104°53'.

Length 199 m; draft 7.9 m.

Type: Ship. MMSI: 371706000.

Date/timePositionNaut miles runAvg speedWind from/ knotsBaromVisibWave heightAir tempDewpointWater temp
2018-Jun-19 14:51N 01°59' E 104°53'1017.6
2018-Jun-19 14:16N 01°50' E 104°48'617.5
2018-Jun-19 13:56N 01°45' E 104°46'917.5
2018-Jun-19 13:26N 01°37' E 104°42'817.2
2018-Jun-19 12:58N 01°31' E 104°36'917.9
2018-Jun-19 12:28N 01°26' E 104°29'817.7
2018-Jun-19 11:59N 01°20' E 104°23'815.8
2018-Jun-19 11:30N 01°17' E 104°16'916.6
2018-Jun-19 10:59N 01°16' E 104°08'613.3
2018-Jun-19 10:30N 01°16' E 104°01'3 5.2
2018-Jun-19 10:01N 01°17' E 103°59'0 0.2
2018-Jun-19 09:29N 01°17' E 103°59'0 0.0
2018-Jun-19 08:59N 01°17' E 103°59'0 0.1
2018-Jun-19 08:29N 01°17' E 103°59'0 0.0
2018-Jun-19 07:59N 01°17' E 103°59'0 0.0
2018-Jun-19 07:29N 01°17' E 103°59'0 0.1
2018-Jun-19 06:59N 01°17' E 103°59'0 0.1
2018-Jun-19 06:22N 01°17' E 103°59'0 0.0
2018-Jun-19 05:58N 01°17' E 103°59'0 0.0
2018-Jun-19 05:28N 01°17' E 103°59'0 0.0
2018-Jun-19 04:56N 01°17' E 103°59'0 0.0
2018-Jun-19 04:28N 01°17' E 103°59'0 0.0
2018-Jun-19 03:59N 01°17' E 103°59'0 0.0
2018-Jun-19 03:29N 01°17' E 103°59'0 0.1
2018-Jun-19 02:59N 01°17' E 103°59'0 0.0
2018-Jun-19 02:29N 01°17' E 103°59'0 0.0
2018-Jun-19 01:58N 01°17' E 103°59'0 0.8
2018-Jun-19 01:30N 01°17' E 103°59'2 4.2
2018-Jun-19 01:00N 01°16' E 103°57'2 4.0
2018-Jun-19 00:31N 01°14' E 103°57'3 6.3
2018-Jun-19 00:00N 01°13' E 103°54'4 7.8
2018-Jun-18 23:30N 01°11' E 103°50'5 9.5
2018-Jun-18 23:00N 01°08' E 103°46'5 9.6
2018-Jun-18 22:30N 01°05' E 103°43'5 9.1
2018-Jun-18 21:59N 01°03' E 103°39'612.2
2018-Jun-18 21:30N 01°05' E 103°34'610.8
2018-Jun-18 20:59N 01°08' E 103°29'511.0
2018-Jun-18 20:29N 01°11' E 103°24'511.4
2018-Jun-18 20:00N 01°14' E 103°20'612.1
2018-Jun-18 19:30N 01°19' E 103°15'610.0
2018-Jun-18 18:53N 01°23' E 103°11'3 8.7
2018-Jun-18 18:30N 01°25' E 103°08'5 9.4
2018-Jun-18 17:55N 01°28' E 103°04'  

Dump ship's entire track history